createdAt,value
2017-08-26T00:02:32.488Z,88.40
2017-08-26T00:05:42.709Z,88.40
2017-08-26T00:08:52.561Z,88.30
2017-08-26T00:12:02.309Z,87.70
2017-08-26T00:15:12.674Z,86.90
2017-08-26T00:18:23.154Z,86.80
2017-08-26T00:21:33.708Z,87.20
2017-08-26T00:24:43.720Z,87.70
2017-08-26T00:27:54.432Z,87.80
2017-08-26T00:31:04.925Z,87.60
2017-08-26T00:34:15.263Z,87.40
2017-08-26T00:37:25.297Z,85.80
2017-08-26T00:40:35.889Z,85.20
2017-08-26T00:43:46.507Z,85.50
2017-08-26T00:46:57.028Z,86.30
2017-08-26T00:50:07.171Z,85.30
2017-08-26T00:53:17.543Z,85.20
2017-08-26T00:56:28.271Z,86.20
2017-08-26T00:59:38.787Z,85.30
2017-08-26T01:02:48.735Z,84.50
2017-08-26T01:05:58.533Z,85.80
2017-08-26T01:09:08.240Z,86.20
2017-08-26T01:12:18.744Z,85.40
2017-08-26T01:15:29.384Z,86.50
2017-08-26T01:18:39.200Z,85.70
2017-08-26T01:21:49.791Z,87.70
2017-08-26T01:25:00.057Z,86.60
2017-08-26T01:28:10.500Z,86.60
2017-08-26T01:31:20.997Z,86.50
2017-08-26T01:34:30.829Z,86.10
2017-08-26T01:37:40.904Z,84.30
2017-08-26T01:40:51.160Z,85.20
2017-08-26T01:44:01.469Z,84.20
2017-08-26T01:47:11.585Z,83.60
2017-08-26T01:50:22.039Z,85.20
2017-08-26T01:53:32.417Z,84.20
2017-08-26T01:56:42.472Z,85.00
2017-08-26T01:59:52.650Z,83.90
2017-08-26T02:03:03.088Z,83.30
2017-08-26T02:06:12.820Z,84.00
2017-08-26T02:09:23.106Z,83.00
2017-08-26T02:12:33.378Z,83.10
2017-08-26T02:15:43.524Z,84.20
2017-08-26T02:18:53.889Z,84.10
2017-08-26T02:22:03.839Z,84.80
2017-08-26T02:25:13.903Z,85.60
2017-08-26T02:28:24.167Z,85.30
2017-08-26T02:31:35.440Z,85.10
2017-08-26T02:34:45.209Z,85.00
2017-08-26T02:37:55.543Z,84.60
2017-08-26T02:41:05.929Z,84.70
2017-08-26T02:44:16.010Z,83.20
2017-08-26T02:47:26.031Z,83.00
2017-08-26T02:50:36.505Z,83.30
2017-08-26T02:53:47.698Z,84.90
2017-08-26T02:56:57.764Z,84.90
2017-08-26T03:00:08.102Z,84.20
2017-08-26T03:03:18.740Z,83.90
2017-08-26T03:06:29.006Z,83.80
2017-08-26T03:09:39.601Z,85.00
2017-08-26T03:12:49.432Z,84.00
2017-08-26T03:15:59.719Z,84.00
2017-08-26T03:19:10.648Z,87.70
2017-08-26T03:22:21.370Z,87.60
2017-08-26T03:25:31.467Z,87.70
2017-08-26T03:28:42.092Z,86.60
2017-08-26T03:31:52.451Z,87.60
2017-08-26T03:35:02.921Z,87.20
2017-08-26T03:38:13.100Z,86.50
2017-08-26T03:41:23.956Z,88.70
2017-08-26T03:44:33.696Z,88.60
2017-08-26T03:47:44.177Z,89.00
2017-08-26T03:50:54.169Z,88.10
2017-08-26T03:54:04.293Z,87.90
2017-08-26T03:57:14.305Z,87.00
2017-08-26T04:00:25.056Z,87.50
2017-08-26T04:03:34.922Z,88.00
2017-08-26T04:06:45.238Z,89.00
2017-08-26T04:09:55.965Z,87.00
2017-08-26T04:13:06.571Z,86.20
2017-08-26T04:16:16.609Z,85.50
2017-08-26T04:19:26.958Z,86.00
2017-08-26T04:22:37.153Z,88.30
2017-08-26T04:25:47.452Z,87.70
2017-08-26T04:28:57.310Z,87.40
2017-08-26T04:32:07.524Z,89.40
2017-08-26T04:35:17.669Z,88.80
2017-08-26T04:38:27.992Z,90.10
2017-08-26T04:41:38.740Z,90.10
2017-08-26T04:44:48.881Z,89.90
2017-08-26T04:47:59.272Z,88.80
2017-08-26T04:51:08.780Z,88.80
2017-08-26T04:54:18.844Z,88.90
2017-08-26T04:57:28.840Z,88.90
2017-08-26T05:00:39.348Z,86.90
2017-08-26T05:03:50.977Z,86.20
2017-08-26T05:07:01.734Z,87.50
2017-08-26T05:10:12.310Z,88.10
2017-08-26T05:13:22.756Z,88.80
2017-08-26T05:16:32.908Z,89.90
2017-08-26T05:19:43.388Z,88.10
2017-08-26T05:22:53.356Z,89.90
2017-08-26T05:26:03.708Z,89.30
2017-08-26T05:29:13.258Z,90.20
2017-08-26T05:32:23.824Z,90.70
2017-08-26T05:35:34.030Z,90.20
2017-08-26T05:38:44.236Z,90.40
2017-08-26T05:41:54.327Z,90.80
2017-08-26T05:45:04.769Z,91.10
2017-08-26T05:48:15.332Z,90.80
2017-08-26T05:51:25.491Z,90.80
2017-08-26T05:54:36.174Z,91.00
2017-08-26T05:57:46.319Z,90.90
2017-08-26T06:00:56.264Z,90.90
2017-08-26T06:04:06.642Z,90.60
2017-08-26T06:07:17.241Z,90.20
2017-08-26T06:10:27.574Z,90.30
2017-08-26T06:13:37.477Z,91.00
2017-08-26T06:16:47.178Z,91.30
2017-08-26T06:19:57.389Z,89.80
2017-08-26T06:23:08.037Z,90.00
2017-08-26T06:26:18.336Z,91.00
2017-08-26T06:29:28.891Z,90.30
2017-08-26T06:32:39.668Z,89.70
2017-08-26T06:35:50.035Z,90.40
2017-08-26T06:39:00.332Z,91.70
2017-08-26T06:42:10.555Z,91.10
2017-08-26T06:45:20.562Z,91.30
2017-08-26T06:48:30.690Z,91.60
2017-08-26T06:51:41.694Z,91.90
2017-08-26T06:54:51.943Z,92.00
2017-08-26T06:58:02.148Z,91.60
2017-08-26T07:01:12.244Z,91.40
2017-08-26T07:04:22.220Z,91.40
2017-08-26T07:07:32.505Z,90.60
2017-08-26T07:10:42.612Z,92.00
2017-08-26T07:13:53.109Z,92.20
2017-08-26T07:17:03.713Z,91.60
2017-08-26T07:20:13.824Z,92.10
2017-08-26T07:23:24.200Z,90.40
2017-08-26T07:26:34.248Z,90.90
2017-08-26T07:29:44.596Z,90.90
2017-08-26T07:32:54.962Z,91.80
2017-08-26T07:36:05.636Z,92.50
2017-08-26T07:39:16.120Z,91.20
2017-08-26T07:42:26.220Z,90.80
2017-08-26T07:45:36.333Z,91.70
2017-08-26T07:48:46.801Z,90.90
2017-08-26T07:51:56.768Z,91.60
2017-08-26T07:55:07.019Z,92.00
2017-08-26T07:58:17.174Z,92.30
2017-08-26T08:01:27.872Z,91.50
2017-08-26T08:04:38.308Z,91.70
2017-08-26T08:07:48.359Z,91.80
2017-08-26T08:10:58.580Z,91.00
2017-08-26T08:14:08.846Z,91.20
2017-08-26T08:17:18.809Z,91.40
2017-08-26T08:20:28.695Z,91.70
2017-08-26T08:23:38.867Z,91.80
2017-08-26T08:26:49.205Z,91.90
2017-08-26T08:30:00.392Z,91.80
2017-08-26T08:33:11.122Z,91.80
2017-08-26T08:36:20.827Z,91.80
2017-08-26T08:39:31.807Z,91.50
2017-08-26T08:42:42.065Z,91.40
2017-08-26T08:45:52.298Z,91.50
2017-08-26T08:49:02.142Z,91.30
2017-08-26T08:52:12.630Z,91.50
2017-08-26T08:55:22.696Z,92.00
2017-08-26T08:58:32.828Z,91.90
2017-08-26T09:01:43.229Z,91.90
2017-08-26T09:04:53.954Z,92.40
2017-08-26T09:08:04.214Z,91.80
2017-08-26T09:11:15.024Z,91.50
2017-08-26T09:14:25.210Z,91.30
2017-08-26T09:17:35.502Z,91.60
2017-08-26T09:20:45.818Z,92.00
2017-08-26T09:23:55.796Z,91.60
2017-08-26T09:27:06.443Z,91.60
2017-08-26T09:30:16.439Z,91.70
2017-08-26T09:33:29.829Z,91.60
2017-08-26T09:36:39.780Z,91.50
2017-08-26T09:39:50.183Z,92.20
2017-08-26T09:43:00.325Z,91.70
2017-08-26T09:46:11.240Z,91.90
2017-08-26T09:49:21.583Z,91.80
2017-08-26T09:52:31.705Z,92.00
2017-08-26T09:55:41.965Z,91.90
2017-08-26T09:58:52.199Z,92.10
2017-08-26T10:02:02.485Z,91.70
2017-08-26T10:05:12.796Z,90.70
2017-08-26T10:08:23.252Z,90.80
2017-08-26T10:11:33.269Z,90.90
2017-08-26T10:14:43.536Z,89.80
2017-08-26T10:17:53.635Z,89.90
2017-08-26T10:21:04.004Z,88.30
2017-08-26T10:24:13.862Z,86.90
2017-08-26T10:27:24.175Z,86.80
2017-08-26T10:30:34.186Z,85.50
2017-08-26T10:33:44.524Z,80.10
2017-08-26T10:36:54.986Z,83.00
2017-08-26T10:40:05.356Z,77.20
2017-08-26T10:43:15.632Z,81.60
2017-08-26T10:46:25.115Z,75.90
2017-08-26T10:49:34.975Z,78.30
2017-08-26T10:52:44.715Z,76.30
2017-08-26T10:55:55.199Z,76.50
2017-08-26T10:59:05.448Z,74.10
2017-08-26T11:02:15.821Z,72.90
2017-08-26T11:05:26.507Z,71.40
2017-08-26T11:08:36.645Z,68.80
2017-08-26T11:11:46.570Z,71.20
2017-08-26T11:14:56.918Z,67.60
2017-08-26T11:18:07.878Z,68.80
2017-08-26T11:21:17.772Z,69.60
2017-08-26T11:24:27.646Z,67.00
2017-08-26T11:27:38.076Z,67.70
2017-08-26T11:30:48.516Z,67.70
2017-08-26T11:33:59.040Z,66.40
2017-08-26T11:37:08.813Z,65.90
2017-08-26T11:40:18.846Z,66.10
2017-08-26T11:43:29.479Z,64.70
2017-08-26T11:46:39.522Z,66.80
2017-08-26T11:49:50.171Z,66.60
2017-08-26T11:53:00.654Z,63.80
2017-08-26T11:56:10.829Z,67.10
2017-08-26T11:59:20.358Z,66.10
2017-08-26T12:02:30.523Z,66.30
2017-08-26T12:05:40.249Z,66.20
2017-08-26T12:08:50.693Z,66.00
2017-08-26T12:12:01.316Z,64.60
2017-08-26T12:15:11.909Z,65.70
2017-08-26T12:18:22.446Z,64.50
2017-08-26T12:21:32.925Z,64.80
2017-08-26T12:24:43.212Z,63.00
2017-08-26T12:27:53.537Z,62.80
2017-08-26T12:31:03.337Z,62.30
2017-08-26T12:34:13.585Z,63.00
2017-08-26T12:37:23.848Z,63.40
2017-08-26T12:40:34.141Z,63.80
2017-08-26T12:43:44.841Z,63.60
2017-08-26T12:46:55.130Z,64.70
2017-08-26T12:50:06.004Z,65.60
2017-08-26T12:53:16.321Z,65.60
2017-08-26T12:56:26.633Z,65.00
2017-08-26T12:59:36.479Z,64.50
2017-08-26T13:02:47.087Z,64.40
2017-08-26T13:05:57.131Z,62.40
2017-08-26T13:09:07.269Z,62.50
2017-08-26T13:12:19.679Z,61.30
2017-08-26T13:15:29.738Z,62.30
2017-08-26T13:18:39.990Z,61.70
2017-08-26T13:21:50.121Z,61.20
2017-08-26T13:25:00.246Z,61.10
2017-08-26T13:28:10.485Z,61.10
2017-08-26T13:31:21.441Z,61.50
2017-08-26T13:34:31.325Z,62.50
2017-08-26T13:37:41.211Z,61.60
2017-08-26T13:40:52.341Z,60.90
2017-08-26T13:44:02.869Z,60.80
2017-08-26T13:47:13.251Z,60.90
2017-08-26T13:50:23.967Z,59.30
2017-08-26T13:53:33.875Z,62.10
2017-08-26T13:56:44.314Z,58.00
2017-08-26T13:59:54.141Z,57.70
2017-08-26T14:03:04.354Z,59.90
2017-08-26T14:06:14.696Z,58.10
2017-08-26T14:09:25.105Z,58.70
2017-08-26T14:12:35.644Z,59.30
2017-08-26T14:15:46.165Z,59.60
2017-08-26T14:18:56.499Z,60.10
2017-08-26T14:22:06.936Z,60.40
2017-08-26T14:25:17.559Z,59.40
2017-08-26T14:28:27.809Z,59.80
2017-08-26T14:31:38.205Z,59.40
2017-08-26T14:34:48.612Z,59.20
2017-08-26T14:37:59.015Z,59.70
2017-08-26T14:41:09.790Z,58.30
2017-08-26T14:44:20.875Z,58.50
2017-08-26T14:47:30.514Z,58.50
2017-08-26T14:50:41.416Z,59.90
2017-08-26T14:53:52.112Z,59.00
2017-08-26T14:57:02.164Z,60.60
2017-08-26T15:00:13.511Z,60.60
2017-08-26T15:03:23.186Z,60.60
2017-08-26T15:06:33.568Z,59.60
2017-08-26T15:09:44.160Z,59.80
2017-08-26T15:12:54.553Z,59.50
2017-08-26T15:16:05.157Z,59.20
2017-08-26T15:19:15.511Z,58.40
2017-08-26T15:22:25.843Z,59.30
2017-08-26T15:25:37.132Z,58.80
2017-08-26T15:28:47.593Z,58.70
2017-08-26T15:31:58.047Z,59.50
2017-08-26T15:35:08.353Z,59.00
2017-08-26T15:38:18.946Z,59.00
2017-08-26T15:41:29.053Z,59.00
2017-08-26T15:44:39.853Z,59.90
2017-08-26T15:47:50.348Z,59.90
2017-08-26T15:51:00.585Z,59.00
2017-08-26T15:54:10.527Z,59.10
2017-08-26T15:57:21.040Z,58.80
2017-08-26T16:00:31.302Z,58.80
2017-08-26T16:03:41.929Z,59.00
2017-08-26T16:06:51.934Z,58.80
2017-08-26T16:10:02.296Z,59.60
2017-08-26T16:13:12.875Z,59.30
2017-08-26T16:16:23.167Z,58.90
2017-08-26T16:19:33.581Z,59.80
2017-08-26T16:22:44.014Z,60.40
2017-08-26T16:25:54.556Z,61.10
2017-08-26T16:29:04.653Z,60.00
2017-08-26T16:32:14.912Z,59.70
2017-08-26T16:35:25.095Z,59.00
2017-08-26T16:38:35.054Z,59.20
2017-08-26T16:41:45.482Z,59.60
2017-08-26T16:44:56.028Z,59.30
2017-08-26T16:48:06.066Z,59.20
2017-08-26T16:51:17.100Z,58.40
2017-08-26T16:54:27.696Z,58.30
2017-08-26T16:57:38.405Z,58.00
2017-08-26T17:00:48.581Z,57.90
2017-08-26T17:03:58.991Z,57.50
2017-08-26T17:07:09.297Z,58.40
2017-08-26T17:10:19.515Z,58.70
2017-08-26T17:13:29.732Z,58.80
2017-08-26T17:16:40.325Z,58.60
2017-08-26T17:19:51.134Z,59.30
2017-08-26T17:23:02.159Z,59.90
2017-08-26T17:26:12.525Z,59.70
2017-08-26T17:29:23.666Z,60.50
2017-08-26T17:32:33.569Z,60.70
2017-08-26T17:35:43.924Z,61.10
2017-08-26T17:38:54.357Z,62.50
2017-08-26T17:42:04.817Z,61.90
2017-08-26T17:45:15.347Z,62.00
2017-08-26T17:48:25.242Z,62.70
2017-08-26T17:51:35.085Z,63.70
2017-08-26T17:54:45.232Z,64.80
2017-08-26T17:57:55.537Z,63.80
2017-08-26T18:01:05.948Z,64.90
2017-08-26T18:04:16.327Z,66.00
2017-08-26T18:07:26.392Z,66.00
2017-08-26T18:10:36.187Z,65.60
2017-08-26T18:13:46.331Z,66.30
2017-08-26T18:16:57.000Z,67.50
2017-08-26T18:20:06.827Z,68.60
2017-08-26T18:23:17.638Z,68.00
2017-08-26T18:26:28.085Z,68.40
2017-08-26T18:29:39.258Z,67.60
2017-08-26T18:32:49.912Z,69.70
2017-08-26T18:36:00.277Z,70.70
2017-08-26T18:39:10.134Z,70.70
2017-08-26T18:42:20.506Z,71.10
2017-08-26T18:45:30.991Z,71.60
2017-08-26T18:48:40.753Z,71.10
2017-08-26T18:51:50.337Z,72.30
2017-08-26T18:55:01.875Z,72.60
2017-08-26T18:58:11.783Z,72.50
2017-08-26T19:01:22.248Z,73.60
2017-08-26T19:04:32.387Z,74.40
2017-08-26T19:07:43.266Z,74.00
2017-08-26T19:10:54.962Z,74.20
2017-08-26T19:14:05.049Z,74.90
2017-08-26T19:17:15.461Z,75.10
2017-08-26T19:20:25.856Z,75.20
2017-08-26T19:23:35.908Z,75.40
2017-08-26T19:26:46.004Z,75.50
2017-08-26T19:29:55.980Z,76.40
2017-08-26T19:33:06.664Z,76.20
2017-08-26T19:36:16.777Z,76.60
2017-08-26T19:39:27.205Z,77.20
2017-08-26T19:42:37.364Z,78.00
2017-08-26T19:45:47.261Z,78.20
2017-08-26T19:48:57.664Z,78.90
2017-08-26T19:52:08.083Z,79.00
2017-08-26T19:55:18.232Z,79.20
2017-08-26T19:58:28.415Z,78.50
2017-08-26T20:01:38.953Z,77.10
2017-08-26T20:04:48.862Z,77.50
2017-08-26T20:07:59.365Z,77.90
2017-08-26T20:11:10.891Z,79.70
2017-08-26T20:14:21.207Z,78.90
2017-08-26T20:17:31.539Z,79.10
2017-08-26T20:20:41.844Z,78.90
2017-08-26T20:23:51.754Z,78.60
2017-08-26T20:27:01.961Z,77.80
2017-08-26T20:30:12.507Z,78.20
2017-08-26T20:33:23.068Z,79.00
2017-08-26T20:36:32.790Z,78.90
2017-08-26T20:39:42.909Z,78.80
2017-08-26T20:42:52.545Z,78.90
2017-08-26T20:46:02.294Z,78.60
2017-08-26T20:49:12.538Z,80.50
2017-08-26T20:52:22.779Z,80.00
2017-08-26T20:55:32.936Z,79.50
2017-08-26T20:58:43.479Z,79.80
2017-08-26T21:01:53.458Z,79.70
2017-08-26T21:05:03.476Z,80.40
2017-08-26T21:08:13.910Z,80.90
2017-08-26T21:11:24.287Z,80.50
2017-08-26T21:14:34.580Z,80.40
2017-08-26T21:17:44.940Z,80.50
2017-08-26T21:20:55.461Z,80.30
2017-08-26T21:24:06.137Z,80.50
2017-08-26T21:27:16.209Z,80.70
2017-08-26T21:30:25.613Z,81.10
2017-08-26T21:33:36.122Z,81.00
2017-08-26T21:36:46.657Z,81.80
2017-08-26T21:39:57.413Z,81.50
2017-08-26T21:43:07.405Z,82.00
2017-08-26T21:46:17.884Z,82.40
2017-08-26T21:49:28.377Z,81.80
2017-08-26T21:52:38.033Z,82.00
2017-08-26T21:55:48.861Z,82.00
2017-08-26T21:58:59.103Z,82.40
2017-08-26T22:02:10.103Z,81.70
2017-08-26T22:05:20.700Z,81.60
2017-08-26T22:08:30.743Z,82.10
2017-08-26T22:11:41.180Z,82.50
2017-08-26T22:14:51.737Z,82.70
2017-08-26T22:18:03.266Z,82.40
2017-08-26T22:21:13.440Z,82.40
2017-08-26T22:24:24.471Z,82.10
2017-08-26T22:27:34.581Z,83.00
2017-08-26T22:30:44.144Z,82.30
2017-08-26T22:33:55.652Z,83.10
2017-08-26T22:37:06.112Z,83.00
2017-08-26T22:40:16.496Z,83.70
2017-08-26T22:43:26.353Z,83.20
2017-08-26T22:46:36.804Z,83.50
2017-08-26T22:49:47.130Z,83.40
2017-08-26T22:52:57.091Z,82.50
2017-08-26T22:56:07.580Z,82.90
2017-08-26T22:59:18.188Z,82.90
2017-08-26T23:02:28.308Z,84.10
2017-08-26T23:05:38.549Z,84.50
2017-08-26T23:08:48.874Z,84.00
2017-08-26T23:11:59.944Z,83.90
2017-08-26T23:15:09.892Z,83.90
2017-08-26T23:18:20.220Z,84.20
2017-08-26T23:21:30.741Z,85.00
2017-08-26T23:24:40.635Z,85.70
2017-08-26T23:27:51.506Z,84.60
2017-08-26T23:31:01.410Z,84.50
2017-08-26T23:34:11.718Z,84.50
2017-08-26T23:37:20.802Z,84.80
2017-08-26T23:40:30.315Z,85.50
2017-08-26T23:43:39.347Z,85.80
2017-08-26T23:46:50.388Z,84.70
2017-08-26T23:49:59.969Z,84.70
2017-08-26T23:53:10.282Z,84.30
2017-08-26T23:56:20.340Z,85.40
2017-08-26T23:59:30.821Z,84.00
